Impacts METAR Board
IDs:

KLGA - New York/La Guardia, NY, US

Updated at: 1900 UTC 21 Sep 2021
Potential Impact None Slight Moderate High
Time 21/07Z 21/08Z 21/09Z 21/10Z 21/11Z 21/12Z 21/13Z 21/14Z 21/15Z 21/16Z 21/17Z 21/18Z 21/19Z
Temp66 65 64 64 65 66 68 71 72 73 73 74 73
Dewpt54 55 55 55 55 55 55 56 56 57 58 60 62
Altim30.35 30.33 30.33 30.33 30.34 30.35 30.35 30.35 30.36 30.34 30.34 30.32 30.31
VIS10 10 10 10 10 10 10 10 10 10 10 10 10
CIG-- 250 250 250 36 35 -- 32 -- 250 34 250 60
CoverSCTBKNBKNBKNBKNBKNSCTBKNSCTBKNBKNBKNBKN
FltCatVFRVFRVFRVFRVFRVFRVFRVFRVFRVFRVFRVFRVFR
WX--------------------------
WDir1109011012011010090904040505040
WSpd4 6 5 5 3 8 7 7 9 9 11 11 10
WGst-- -- -- -- -- -- -- -- -- -- -- -- --
Raw hourly METARs
KLGA 210651Z 11004KT 10SM SCT250 19/12 A3035 RMK AO2 SLP276 T01890122
KLGA 210751Z 09006KT 10SM BKN250 18/13 A3033 RMK AO2 SLP271 T01830128
KLGA 210851Z COR 11005KT 10SM FEW020 BKN250 18/13 A3033 RMK AO2 SLP270 T01780128 56009
KLGA 210951Z 12005KT 10SM FEW030 BKN250 18/13 A3033 RMK AO2 SLP270 T01780128
KLGA 211051Z 11003KT 10SM BKN036 BKN250 18/13 A3034 RMK AO2 SLP273 T01830128
KLGA 211151Z 10008KT 10SM BKN035 19/13 A3035 RMK AO2 SLP277 T01890128 10194 20178 53007
KLGA 211251Z 09007KT 10SM SCT038 SCT250 20/13 A3035 RMK AO2 SLP277 T02000128
KLGA 211351Z 09007KT 10SM SCT027 BKN032 BKN250 22/13 A3035 RMK AO2 SLP278 T02170133
KLGA 211451Z 04009KT 10SM SCT028 SCT043 SCT250 22/13 A3036 RMK AO2 SLP279 T02220133 53001
KLGA 211551Z 04009KT 10SM FEW034 SCT044 BKN250 23/14 A3034 RMK AO2 SLP274 T02280139
KLGA 211651Z 05011KT 10SM BKN034 BKN046 BKN250 23/14 A3034 RMK AO2 SLP272 T02280144
KLGA 211751Z 05011KT 10SM FEW040 SCT055 BKN250 23/16 A3032 RMK AO2 SLP268 T02330156 10239 20189 56010
KLGA 211851Z 04010KT 10SM FEW037 BKN060 23/17 A3031 RMK AO2 SLP264 T02280167



Page loaded:  19:20 UTC  |   12:20 PM Pacific  |   01:20 PM Mountain  |   02:20 PM Central  |   03:20 PM Eastern

 

ADVISORIES

FORECASTS

FORECASTS

OBSERVATIONS

USER TOOLS

ABOUT US